createdAt,value
2022-09-11T00:01:54.157Z,0
2022-09-11T00:07:16.985Z,0
2022-09-11T00:13:00.699Z,0
2022-09-11T00:18:23.676Z,0
2022-09-11T00:23:46.356Z,0
2022-09-11T00:29:08.657Z,0
2022-09-11T00:34:31.102Z,0
2022-09-11T00:39:53.790Z,0
2022-09-11T00:45:16.395Z,0
2022-09-11T00:50:38.762Z,0
2022-09-11T00:56:04.476Z,0
2022-09-11T01:01:26.833Z,0
2022-09-11T01:12:17.689Z,0
2022-09-11T01:17:50.507Z,0
2022-09-11T01:23:13.579Z,0
2022-09-11T01:39:24.147Z,0
2022-09-11T01:44:46.687Z,0
2022-09-11T01:50:11.937Z,0
2022-09-11T01:55:37.568Z,0
2022-09-11T02:01:00.159Z,0
2022-09-11T02:06:24.401Z,0
2022-09-11T02:11:47.012Z,0
2022-09-11T02:17:09.555Z,0
2022-09-11T02:22:44.374Z,1
2022-09-11T02:28:07.166Z,0
2022-09-11T02:33:29.568Z,0
2022-09-11T02:38:51.725Z,0
2022-09-11T02:44:20.147Z,0
2022-09-11T02:49:42.549Z,0
2022-09-11T02:55:05.129Z,0
2022-09-11T03:00:30.458Z,0
2022-09-11T03:05:55.736Z,0
2022-09-11T03:11:18.388Z,0
2022-09-11T03:16:40.786Z,0
2022-09-11T03:27:08.925Z,0
2022-09-11T03:32:49.581Z,0
2022-09-11T03:38:12.000Z,0
2022-09-11T03:48:45.547Z,0
2022-09-11T03:54:29.164Z,0
2022-09-11T03:59:51.640Z,0
2022-09-11T04:05:14.181Z,0
2022-09-11T04:10:36.427Z,0
2022-09-11T04:15:58.992Z,0
2022-09-11T04:21:23.922Z,0
2022-09-11T04:26:46.716Z,0
2022-09-11T04:32:09.407Z,0
2022-09-11T04:37:37.819Z,0
2022-09-11T04:43:00.410Z,0
2022-09-11T04:48:22.990Z,0
2022-09-11T04:53:53.915Z,5
2022-09-11T04:59:16.481Z,14
2022-09-11T05:04:39.134Z,20
2022-09-11T05:15:36.270Z,26.1
2022-09-11T05:26:21.491Z,37.8
2022-09-11T05:31:49.911Z,51.9
2022-09-11T05:37:12.876Z,67.1
2022-09-11T05:42:40.783Z,96.6
2022-09-11T05:48:03.848Z,96.8
2022-09-11T05:53:38.807Z,102.7
2022-09-11T05:59:01.872Z,101.1
2022-09-11T06:04:23.833Z,93.5
2022-09-11T06:09:52.836Z,100.4
2022-09-11T06:15:47.331Z,125.6
2022-09-11T06:21:12.622Z,159.7
2022-09-11T06:26:35.869Z,158.6
2022-09-11T06:32:00.880Z,180.4
2022-09-11T06:37:23.541Z,157.1
2022-09-11T06:42:45.996Z,194.8
2022-09-11T06:48:08.721Z,465.5
2022-09-11T06:53:31.459Z,482.9
2022-09-11T06:58:54.024Z,409.6
2022-09-11T07:04:16.721Z,783
2022-09-11T07:20:33.981Z,335.6
2022-09-11T07:25:56.897Z,529.6
2022-09-11T07:31:24.883Z,367
2022-09-11T07:36:47.755Z,639.2
2022-09-11T07:42:19.728Z,770.6
2022-09-11T07:47:43.009Z,1008.4
2022-09-11T07:54:23.065Z,895.5
2022-09-11T07:59:50.362Z,913.3
2022-09-11T08:05:12.913Z,657.7
2022-09-11T08:10:35.312Z,906.2
2022-09-11T08:15:58.223Z,2265.4
2022-09-11T08:21:20.412Z,935.3
2022-09-11T08:26:52.298Z,1540.1
2022-09-11T08:32:15.789Z,1987.7
2022-09-11T08:37:42.996Z,1159.2
2022-09-11T08:43:04.757Z,762.1
2022-09-11T08:48:26.751Z,664.8
2022-09-11T08:53:59.864Z,598.7
2022-09-11T08:59:22.377Z,738.6
2022-09-11T09:10:19.085Z,1177.8
2022-09-11T09:21:06.202Z,4261
2022-09-11T09:26:38.687Z,3113.4
2022-09-11T09:32:02.369Z,1775.5
2022-09-11T09:37:26.352Z,2191.4
2022-09-11T09:42:47.566Z,2519.9
2022-09-11T09:48:10.561Z,3750.8
2022-09-11T09:58:35.534Z,1088
2022-09-11T10:03:57.392Z,1061.7
2022-09-11T10:09:19.498Z,1193.9
2022-09-11T10:15:05.172Z,1500.8
2022-09-11T10:20:27.994Z,1370.1
2022-09-11T10:25:50.651Z,1883.9
2022-09-11T10:31:13.811Z,2138.6
2022-09-11T10:36:38.087Z,3545.6
2022-09-11T10:42:01.656Z,3638.8
2022-09-11T10:53:04.945Z,1543.9
2022-09-11T10:58:24.768Z,809.1
2022-09-11T11:03:47.092Z,3262.8
2022-09-11T11:09:10.669Z,747.3
2022-09-11T11:14:32.697Z,1038.7
2022-09-11T11:19:57.219Z,3682.3
2022-09-11T11:25:21.120Z,4323
2022-09-11T11:30:42.929Z,1027.3
2022-09-11T11:36:05.050Z,3660.2
2022-09-11T11:41:30.910Z,1007.8
2022-09-11T11:46:56.447Z,4089.4
2022-09-11T11:57:33.013Z,1501.2
2022-09-11T12:02:53.570Z,858.8
2022-09-11T12:08:15.769Z,758.3
2022-09-11T12:13:38.429Z,4235.5
2022-09-11T12:19:03.550Z,3490.6
2022-09-11T12:40:55.287Z,4331.7
2022-09-11T12:46:20.372Z,3880.9
2022-09-11T12:51:44.356Z,2735.1
2022-09-11T12:57:08.927Z,1512.5
2022-09-11T13:02:30.546Z,693.6
2022-09-11T13:07:54.261Z,868.3
2022-09-11T13:13:18.141Z,756.5
2022-09-11T13:18:40.106Z,3647.1
2022-09-11T13:25:25.740Z,3211.7
2022-09-11T13:30:50.172Z,2962.1
2022-09-11T13:36:17.498Z,3003.2
2022-09-11T13:41:40.384Z,2834.1
2022-09-11T13:47:02.955Z,2544.3
2022-09-11T14:30:46.929Z,2404.9
2022-09-11T14:36:08.344Z,2409.9
2022-09-11T14:41:34.642Z,2264.5
2022-09-11T14:57:43.453Z,262.4
2022-09-11T15:03:05.141Z,226.4
2022-09-11T15:08:27.166Z,192.4
2022-09-11T15:14:54.719Z,185
2022-09-11T15:20:18.073Z,161.5
2022-09-11T15:25:40.327Z,157.1
2022-09-11T15:31:03.012Z,164.1
2022-09-11T15:41:51.189Z,151.6
2022-09-11T15:47:13.630Z,145.2
2022-09-11T15:52:36.401Z,134.5
2022-09-11T15:57:58.764Z,144.8
2022-09-11T16:03:21.091Z,140.8
2022-09-11T16:08:43.444Z,133.7
2022-09-11T16:14:05.934Z,158.9
2022-09-11T16:19:28.613Z,139
2022-09-11T16:25:36.154Z,123.1
2022-09-11T16:30:59.033Z,119.6
2022-09-11T16:36:21.668Z,110.8
2022-09-11T16:41:43.903Z,98
2022-09-11T16:47:06.676Z,96.5
2022-09-11T16:52:29.187Z,87.1
2022-09-11T16:57:51.943Z,81.7
2022-09-11T17:13:59.037Z,59.2
2022-09-11T17:19:21.581Z,62.8
2022-09-11T17:24:44.067Z,59
2022-09-11T17:30:06.569Z,55.5
2022-09-11T17:35:46.242Z,49.7
2022-09-11T17:41:08.843Z,47.2
2022-09-11T17:46:31.418Z,41.5
2022-09-11T17:51:54.078Z,32.2
2022-09-11T17:57:16.379Z,24
2022-09-11T18:02:38.764Z,10
2022-09-11T18:08:01.300Z,3
2022-09-11T18:13:23.434Z,0
2022-09-11T18:19:03.165Z,0
2022-09-11T18:24:25.986Z,0
2022-09-11T18:29:52.878Z,0
2022-09-11T18:35:15.363Z,0
2022-09-11T18:40:40.754Z,0
2022-09-11T18:46:03.440Z,0
2022-09-11T18:51:31.724Z,0
2022-09-11T18:57:07.606Z,0
2022-09-11T19:07:52.426Z,0
2022-09-11T19:13:17.381Z,0
2022-09-11T19:18:40.901Z,0
2022-09-11T19:24:20.677Z,0
2022-09-11T19:29:43.266Z,0
2022-09-11T19:35:05.536Z,0
2022-09-11T19:40:28.215Z,0
2022-09-11T19:45:50.722Z,0
2022-09-11T19:51:13.075Z,0
2022-09-11T19:56:35.450Z,0
2022-09-11T20:02:00.380Z,0
2022-09-11T20:07:23.262Z,0
2022-09-11T20:12:45.618Z,0
2022-09-11T20:18:11.053Z,0
2022-09-11T20:23:33.526Z,0
2022-09-11T20:28:55.964Z,0
2022-09-11T20:34:18.574Z,0
2022-09-11T20:39:41.299Z,0
2022-09-11T20:45:03.788Z,0
2022-09-11T21:01:11.220Z,0
2022-09-11T21:06:51.176Z,0
2022-09-11T21:12:13.828Z,0
2022-09-11T21:17:36.159Z,0
2022-09-11T21:22:58.522Z,0
2022-09-11T21:28:24.007Z,0
2022-09-11T21:33:46.400Z,0
2022-09-11T21:39:16.436Z,0
2022-09-11T21:44:39.461Z,0
2022-09-11T21:50:01.655Z,0
2022-09-11T21:55:24.166Z,0
2022-09-11T22:00:46.598Z,0
2022-09-11T22:06:09.084Z,0
2022-09-11T22:11:31.775Z,0
2022-09-11T22:16:59.935Z,0
2022-09-11T22:22:22.354Z,0
2022-09-11T22:27:47.127Z,0
2022-09-11T22:33:09.613Z,0
2022-09-11T22:38:32.046Z,0
2022-09-11T22:54:45.210Z,0
2022-09-11T23:00:10.706Z,0
2022-09-11T23:05:33.007Z,0
2022-09-11T23:10:55.628Z,0
2022-09-11T23:16:21.411Z,0
2022-09-11T23:27:08.800Z,0
2022-09-11T23:32:31.231Z,0
2022-09-11T23:38:11.948Z,0
2022-09-11T23:43:34.633Z,0
2022-09-11T23:48:57.262Z,0
2022-09-11T23:54:31.470Z,0
2022-09-11T23:59:54.458Z,0
